Nordic Stockholm — 2DKI2 — position and weather

sailwx.info

Track history (hours):
 
Tides and Currents Weather Stations Pressure Air Temp Water Temp Dewpoint Dewpoint Depression Visibility Wind Speed Wind Dir Waves Ship Positions

Nordic Stockholm

Last reported at 2016-May-31 09:09 UTC. Time now 2016-Jun-29 03:53 UTC.
Position S 24°47' W 046°01'.
Warning: this ship's position is 28 days out of date.

Length 180 m; draft 10.1 m.

Type: Cargo ship. MMSI: 235079725.

Date/timePositionNaut miles runAvg speedWind from/ knotsBaromVisibWave heightAir tempDewpointWater temp
2016-May-31 09:09S 24°47' W 046°01'914.6
2016-May-31 08:33S 24°44' W 045°52'18414.1
2016-May-30 19:33S 23°32' W 042°47'1512.9
2016-May-30 18:23S 23°26' W 042°32'1112.9
2016-May-30 17:33S 23°22' W 042°21'1312.8
2016-May-30 16:33S 23°16' W 042°09'1612.9
2016-May-30 15:19S 23°11' W 041°52'1013.0
2016-May-30 14:33S 23°05' W 041°44'1413.9
2016-May-30 13:32S 22°54' W 041°34'1414.4
2016-May-30 12:33S 22°44' W 041°23'  
Track history (hours):
 
Tides and Currents Weather Stations Pressure Air Temp Water Temp Dewpoint Dewpoint Depression Visibility Wind Speed Wind Dir Waves Ship Positions

Nordic Stockholm

Last reported at 2016-May-31 09:09 UTC. Time now 2016-Jun-29 03:53 UTC.
Position S 24°47' W 046°01'.
Warning: this ship's position is 28 days out of date.

Length 180 m; draft 10.1 m.

Type: Cargo ship. MMSI: 235079725.

Date/timePositionNaut miles runAvg speedWind from/ knotsBaromVisibWave heightAir tempDewpointWater temp
2016-May-31 09:09S 24°47' W 046°01'914.6
2016-May-31 08:33S 24°44' W 045°52'18414.1
2016-May-30 19:33S 23°32' W 042°47'1512.9
2016-May-30 18:23S 23°26' W 042°32'1112.9
2016-May-30 17:33S 23°22' W 042°21'1312.8
2016-May-30 16:33S 23°16' W 042°09'1612.9
2016-May-30 15:19S 23°11' W 041°52'1013.0
2016-May-30 14:33S 23°05' W 041°44'1413.9
2016-May-30 13:32S 22°54' W 041°34'1414.4
2016-May-30 12:33S 22°44' W 041°23'  

Dump ship's entire track history